sensor_id;sensor_type;location;lat;lon;timestamp;temperature;humidity
67820;DHT22;54618;52.018;5.576;2024-03-08T00:00:17;3.60;75.00
67820;DHT22;54618;52.018;5.576;2024-03-08T00:02:46;3.60;75.10
67820;DHT22;54618;52.018;5.576;2024-03-08T00:05:13;3.60;74.90
67820;DHT22;54618;52.018;5.576;2024-03-08T00:07:40;3.60;74.70
67820;DHT22;54618;52.018;5.576;2024-03-08T00:10:07;3.50;75.00
67820;DHT22;54618;52.018;5.576;2024-03-08T00:12:43;3.50;74.80
67820;DHT22;54618;52.018;5.576;2024-03-08T00:15:10;3.50;75.00
67820;DHT22;54618;52.018;5.576;2024-03-08T00:17:36;3.40;74.90
67820;DHT22;54618;52.018;5.576;2024-03-08T00:20:03;3.40;75.00
67820;DHT22;54618;52.018;5.576;2024-03-08T00:22:36;3.40;75.10
67820;DHT22;54618;52.018;5.576;2024-03-08T00:25:06;3.40;75.50
67820;DHT22;54618;52.018;5.576;2024-03-08T00:27:34;3.30;75.10
67820;DHT22;54618;52.018;5.576;2024-03-08T00:30:00;3.30;74.70
67820;DHT22;54618;52.018;5.576;2024-03-08T00:32:27;3.30;74.90
67820;DHT22;54618;52.018;5.576;2024-03-08T00:34:59;3.30;74.80
67820;DHT22;54618;52.018;5.576;2024-03-08T00:37:24;3.20;74.90
67820;DHT22;54618;52.018;5.576;2024-03-08T00:39:51;3.20;75.00
67820;DHT22;54618;52.018;5.576;2024-03-08T00:42:17;3.20;74.90
67820;DHT22;54618;52.018;5.576;2024-03-08T00:44:43;3.10;74.80
67820;DHT22;54618;52.018;5.576;2024-03-08T00:47:09;3.10;74.90
67820;DHT22;54618;52.018;5.576;2024-03-08T00:49:35;3.10;74.90
67820;DHT22;54618;52.018;5.576;2024-03-08T00:52:02;3.10;75.00
67820;DHT22;54618;52.018;5.576;2024-03-08T00:54:28;3.00;74.80
67820;DHT22;54618;52.018;5.576;2024-03-08T00:56:53;3.00;75.10
67820;DHT22;54618;52.018;5.576;2024-03-08T00:59:20;3.00;74.80
67820;DHT22;54618;52.018;5.576;2024-03-08T01:01:45;3.00;74.50
67820;DHT22;54618;52.018;5.576;2024-03-08T01:04:11;3.00;75.00
67820;DHT22;54618;52.018;5.576;2024-03-08T01:06:37;3.00;74.80
67820;DHT22;54618;52.018;5.576;2024-03-08T01:09:02;2.90;74.40
67820;DHT22;54618;52.018;5.576;2024-03-08T01:11:28;2.90;74.90
67820;DHT22;54618;52.018;5.576;2024-03-08T01:13:54;2.90;74.90
67820;DHT22;54618;52.018;5.576;2024-03-08T01:16:20;2.80;75.60
67820;DHT22;54618;52.018;5.576;2024-03-08T01:18:47;2.80;74.80
67820;DHT22;54618;52.018;5.576;2024-03-08T01:21:12;2.80;75.10
67820;DHT22;54618;52.018;5.576;2024-03-08T01:23:38;2.80;75.20
67820;DHT22;54618;52.018;5.576;2024-03-08T01:26:04;2.70;75.20
67820;DHT22;54618;52.018;5.576;2024-03-08T01:28:30;2.70;75.20
67820;DHT22;54618;52.018;5.576;2024-03-08T01:30:57;2.70;75.00
67820;DHT22;54618;52.018;5.576;2024-03-08T01:33:26;2.70;74.80
67820;DHT22;54618;52.018;5.576;2024-03-08T01:35:53;2.60;74.60
67820;DHT22;54618;52.018;5.576;2024-03-08T01:38:21;2.60;74.60
67820;DHT22;54618;52.018;5.576;2024-03-08T01:40:48;2.60;74.90
67820;DHT22;54618;52.018;5.576;2024-03-08T01:43:27;2.60;74.60
67820;DHT22;54618;52.018;5.576;2024-03-08T01:45:58;2.60;75.00
67820;DHT22;54618;52.018;5.576;2024-03-08T01:48:33;2.50;75.00
67820;DHT22;54618;52.018;5.576;2024-03-08T01:50:59;2.50;75.10
67820;DHT22;54618;52.018;5.576;2024-03-08T01:53:26;2.40;75.20
67820;DHT22;54618;52.018;5.576;2024-03-08T01:55:56;2.40;75.20
67820;DHT22;54618;52.018;5.576;2024-03-08T01:58:23;2.40;75.10
67820;DHT22;54618;52.018;5.576;2024-03-08T02:00:49;2.40;75.00
67820;DHT22;54618;52.018;5.576;2024-03-08T02:03:15;2.40;75.20
67820;DHT22;54618;52.018;5.576;2024-03-08T02:05:41;2.30;75.00
67820;DHT22;54618;52.018;5.576;2024-03-08T02:08:08;2.30;75.00
67820;DHT22;54618;52.018;5.576;2024-03-08T02:10:38;2.30;75.00
67820;DHT22;54618;52.018;5.576;2024-03-08T02:13:04;2.30;74.90
67820;DHT22;54618;52.018;5.576;2024-03-08T02:15:58;2.20;75.30
67820;DHT22;54618;52.018;5.576;2024-03-08T02:18:28;2.20;75.20
67820;DHT22;54618;52.018;5.576;2024-03-08T02:21:04;2.20;75.30
67820;DHT22;54618;52.018;5.576;2024-03-08T02:23:30;2.20;75.30
67820;DHT22;54618;52.018;5.576;2024-03-08T02:25:59;2.20;74.90
67820;DHT22;54618;52.018;5.576;2024-03-08T02:28:25;2.20;75.40
67820;DHT22;54618;52.018;5.576;2024-03-08T02:30:51;2.20;75.00
67820;DHT22;54618;52.018;5.576;2024-03-08T02:33:20;2.20;75.00
67820;DHT22;54618;52.018;5.576;2024-03-08T02:35:46;2.20;74.80
67820;DHT22;54618;52.018;5.576;2024-03-08T02:38:16;2.10;74.80
67820;DHT22;54618;52.018;5.576;2024-03-08T02:40:46;2.20;74.70
67820;DHT22;54618;52.018;5.576;2024-03-08T02:43:13;2.10;74.50
67820;DHT22;54618;52.018;5.576;2024-03-08T02:45:40;2.10;75.00
67820;DHT22;54618;52.018;5.576;2024-03-08T02:48:07;2.10;74.50
67820;DHT22;54618;52.018;5.576;2024-03-08T02:50:34;2.10;74.40
67820;DHT22;54618;52.018;5.576;2024-03-08T02:53:03;2.10;74.80
67820;DHT22;54618;52.018;5.576;2024-03-08T02:55:29;2.10;74.70
67820;DHT22;54618;52.018;5.576;2024-03-08T02:57:55;2.00;75.00
67820;DHT22;54618;52.018;5.576;2024-03-08T03:00:21;2.00;75.40
67820;DHT22;54618;52.018;5.576;2024-03-08T03:02:49;2.00;74.70
67820;DHT22;54618;52.018;5.576;2024-03-08T03:05:22;2.00;74.90
67820;DHT22;54618;52.018;5.576;2024-03-08T03:07:48;2.00;74.20
67820;DHT22;54618;52.018;5.576;2024-03-08T03:10:15;2.00;74.80
67820;DHT22;54618;52.018;5.576;2024-03-08T03:12:45;1.90;74.70
67820;DHT22;54618;52.018;5.576;2024-03-08T03:15:14;1.90;74.50
67820;DHT22;54618;52.018;5.576;2024-03-08T03:17:46;1.90;74.10
67820;DHT22;54618;52.018;5.576;2024-03-08T03:20:12;1.90;74.20
67820;DHT22;54618;52.018;5.576;2024-03-08T03:22:47;1.90;74.20
67820;DHT22;54618;52.018;5.576;2024-03-08T03:25:19;1.90;74.70
67820;DHT22;54618;52.018;5.576;2024-03-08T03:27:54;1.80;74.60
67820;DHT22;54618;52.018;5.576;2024-03-08T03:30:23;1.80;74.40
67820;DHT22;54618;52.018;5.576;2024-03-08T03:32:52;1.80;74.80
67820;DHT22;54618;52.018;5.576;2024-03-08T03:35:18;1.80;74.40
67820;DHT22;54618;52.018;5.576;2024-03-08T03:37:46;1.70;74.50
67820;DHT22;54618;52.018;5.576;2024-03-08T03:40:27;1.70;74.50
67820;DHT22;54618;52.018;5.576;2024-03-08T03:42:53;1.70;74.90
67820;DHT22;54618;52.018;5.576;2024-03-08T03:45:18;1.70;74.60
67820;DHT22;54618;52.018;5.576;2024-03-08T03:47:45;1.70;74.50
67820;DHT22;54618;52.018;5.576;2024-03-08T03:50:11;1.70;74.50
67820;DHT22;54618;52.018;5.576;2024-03-08T03:52:37;1.60;74.50
67820;DHT22;54618;52.018;5.576;2024-03-08T03:55:03;1.60;74.70
67820;DHT22;54618;52.018;5.576;2024-03-08T03:57:30;1.60;74.80
67820;DHT22;54618;52.018;5.576;2024-03-08T03:59:56;1.60;74.70
67820;DHT22;54618;52.018;5.576;2024-03-08T04:02:24;1.60;74.80
67820;DHT22;54618;52.018;5.576;2024-03-08T04:04:49;1.50;74.90
67820;DHT22;54618;52.018;5.576;2024-03-08T04:07:15;1.50;74.80
67820;DHT22;54618;52.018;5.576;2024-03-08T04:09:41;1.50;74.80
67820;DHT22;54618;52.018;5.576;2024-03-08T04:12:06;1.50;74.80
67820;DHT22;54618;52.018;5.576;2024-03-08T04:14:32;1.50;74.60
67820;DHT22;54618;52.018;5.576;2024-03-08T04:16:59;1.50;74.80
67820;DHT22;54618;52.018;5.576;2024-03-08T04:19:25;1.40;74.70
67820;DHT22;54618;52.018;5.576;2024-03-08T04:21:52;1.50;74.70
67820;DHT22;54618;52.018;5.576;2024-03-08T04:24:17;1.40;74.60
67820;DHT22;54618;52.018;5.576;2024-03-08T04:26:43;1.40;75.10
67820;DHT22;54618;52.018;5.576;2024-03-08T04:29:09;1.40;74.80
67820;DHT22;54618;52.018;5.576;2024-03-08T04:31:34;1.40;75.00
67820;DHT22;54618;52.018;5.576;2024-03-08T04:34:00;1.40;74.90
67820;DHT22;54618;52.018;5.576;2024-03-08T04:36:25;1.40;74.80
67820;DHT22;54618;52.018;5.576;2024-03-08T04:38:51;1.30;75.00
67820;DHT22;54618;52.018;5.576;2024-03-08T04:41:17;1.30;74.60
67820;DHT22;54618;52.018;5.576;2024-03-08T04:43:43;1.30;74.90
67820;DHT22;54618;52.018;5.576;2024-03-08T04:46:09;1.30;74.90
67820;DHT22;54618;52.018;5.576;2024-03-08T04:48:35;1.30;75.00
67820;DHT22;54618;52.018;5.576;2024-03-08T04:51:03;1.30;74.90
67820;DHT22;54618;52.018;5.576;2024-03-08T04:53:29;1.20;74.40
67820;DHT22;54618;52.018;5.576;2024-03-08T04:55:55;1.30;74.80
67820;DHT22;54618;52.018;5.576;2024-03-08T04:58:23;1.20;74.70
67820;DHT22;54618;52.018;5.576;2024-03-08T05:00:48;1.20;74.60
67820;DHT22;54618;52.018;5.576;2024-03-08T05:03:15;1.20;74.70
67820;DHT22;54618;52.018;5.576;2024-03-08T05:05:40;1.20;74.50
67820;DHT22;54618;52.018;5.576;2024-03-08T05:08:06;1.20;74.80
67820;DHT22;54618;52.018;5.576;2024-03-08T05:10:32;1.20;74.80
67820;DHT22;54618;52.018;5.576;2024-03-08T05:12:58;1.10;74.70
67820;DHT22;54618;52.018;5.576;2024-03-08T05:15:23;1.10;74.60
67820;DHT22;54618;52.018;5.576;2024-03-08T05:17:49;1.10;74.50
67820;DHT22;54618;52.018;5.576;2024-03-08T05:20:15;1.10;74.50
67820;DHT22;54618;52.018;5.576;2024-03-08T05:22:42;1.10;74.50
67820;DHT22;54618;52.018;5.576;2024-03-08T05:25:08;1.10;74.70
67820;DHT22;54618;52.018;5.576;2024-03-08T05:27:35;1.10;74.50
67820;DHT22;54618;52.018;5.576;2024-03-08T05:30:04;1.10;74.30
67820;DHT22;54618;52.018;5.576;2024-03-08T05:32:30;1.10;74.60
67820;DHT22;54618;52.018;5.576;2024-03-08T05:34:58;1.10;74.70
67820;DHT22;54618;52.018;5.576;2024-03-08T05:37:24;1.10;74.60
67820;DHT22;54618;52.018;5.576;2024-03-08T05:39:49;1.10;74.40
67820;DHT22;54618;52.018;5.576;2024-03-08T05:42:15;1.10;74.70
67820;DHT22;54618;52.018;5.576;2024-03-08T05:44:41;1.10;74.50
67820;DHT22;54618;52.018;5.576;2024-03-08T05:47:06;1.10;75.00
67820;DHT22;54618;52.018;5.576;2024-03-08T05:49:32;1.10;74.70
67820;DHT22;54618;52.018;5.576;2024-03-08T05:51:59;1.00;74.50
67820;DHT22;54618;52.018;5.576;2024-03-08T05:54:25;1.00;74.30
67820;DHT22;54618;52.018;5.576;2024-03-08T05:56:52;1.00;74.30
67820;DHT22;54618;52.018;5.576;2024-03-08T05:59:18;1.00;74.40
67820;DHT22;54618;52.018;5.576;2024-03-08T06:01:44;1.00;74.20
67820;DHT22;54618;52.018;5.576;2024-03-08T06:04:11;1.00;74.80
67820;DHT22;54618;52.018;5.576;2024-03-08T06:06:37;1.00;74.10
67820;DHT22;54618;52.018;5.576;2024-03-08T06:09:05;1.00;74.10
67820;DHT22;54618;52.018;5.576;2024-03-08T06:11:48;1.00;74.00
67820;DHT22;54618;52.018;5.576;2024-03-08T06:14:14;1.00;74.10
67820;DHT22;54618;52.018;5.576;2024-03-08T06:16:44;1.00;74.10
67820;DHT22;54618;52.018;5.576;2024-03-08T06:19:10;1.00;74.10
67820;DHT22;54618;52.018;5.576;2024-03-08T06:21:35;1.00;74.10
67820;DHT22;54618;52.018;5.576;2024-03-08T06:24:02;1.00;74.10
67820;DHT22;54618;52.018;5.576;2024-03-08T06:26:27;1.00;74.40
67820;DHT22;54618;52.018;5.576;2024-03-08T06:28:56;1.00;74.30
67820;DHT22;54618;52.018;5.576;2024-03-08T06:31:22;1.00;74.30
67820;DHT22;54618;52.018;5.576;2024-03-08T06:33:48;1.00;74.20
67820;DHT22;54618;52.018;5.576;2024-03-08T06:36:17;1.10;74.10
67820;DHT22;54618;52.018;5.576;2024-03-08T06:38:45;1.10;74.30
67820;DHT22;54618;52.018;5.576;2024-03-08T06:41:11;1.10;73.80
67820;DHT22;54618;52.018;5.576;2024-03-08T06:43:47;1.20;73.90
67820;DHT22;54618;52.018;5.576;2024-03-08T06:46:15;1.20;74.10
67820;DHT22;54618;52.018;5.576;2024-03-08T06:48:41;1.30;74.10
67820;DHT22;54618;52.018;5.576;2024-03-08T06:51:07;1.30;74.10
67820;DHT22;54618;52.018;5.576;2024-03-08T06:53:32;1.40;74.10
67820;DHT22;54618;52.018;5.576;2024-03-08T06:56:00;1.40;74.30
67820;DHT22;54618;52.018;5.576;2024-03-08T06:58:27;1.50;73.90
67820;DHT22;54618;52.018;5.576;2024-03-08T07:00:53;1.50;73.50
67820;DHT22;54618;52.018;5.576;2024-03-08T07:03:19;1.60;73.90
67820;DHT22;54618;52.018;5.576;2024-03-08T07:05:45;1.70;74.20
67820;DHT22;54618;52.018;5.576;2024-03-08T07:08:11;1.80;73.30
67820;DHT22;54618;52.018;5.576;2024-03-08T07:10:39;1.80;73.70
67820;DHT22;54618;52.018;5.576;2024-03-08T07:13:07;1.90;73.30
67820;DHT22;54618;52.018;5.576;2024-03-08T07:15:32;2.00;73.20
67820;DHT22;54618;52.018;5.576;2024-03-08T07:17:58;2.00;73.10
67820;DHT22;54618;52.018;5.576;2024-03-08T07:20:25;2.10;74.00
67820;DHT22;54618;52.018;5.576;2024-03-08T07:22:50;2.20;73.50
67820;DHT22;54618;52.018;5.576;2024-03-08T07:25:16;2.30;73.50
67820;DHT22;54618;52.018;5.576;2024-03-08T07:27:52;2.40;73.50
67820;DHT22;54618;52.018;5.576;2024-03-08T07:30:18;2.50;73.40
67820;DHT22;54618;52.018;5.576;2024-03-08T07:33:03;2.60;73.50
67820;DHT22;54618;52.018;5.576;2024-03-08T07:35:29;2.70;73.70
67820;DHT22;54618;52.018;5.576;2024-03-08T07:37:55;2.80;73.70
67820;DHT22;54618;52.018;5.576;2024-03-08T07:40:23;2.90;73.20
67820;DHT22;54618;52.018;5.576;2024-03-08T07:42:49;3.00;73.30
67820;DHT22;54618;52.018;5.576;2024-03-08T07:45:16;3.10;73.50
67820;DHT22;54618;52.018;5.576;2024-03-08T07:47:42;3.20;73.00
67820;DHT22;54618;52.018;5.576;2024-03-08T07:50:08;3.30;73.20
67820;DHT22;54618;52.018;5.576;2024-03-08T07:52:35;3.40;73.10
67820;DHT22;54618;52.018;5.576;2024-03-08T07:55:02;3.50;73.20
67820;DHT22;54618;52.018;5.576;2024-03-08T07:57:29;3.70;73.40
67820;DHT22;54618;52.018;5.576;2024-03-08T07:59:55;3.80;73.30
67820;DHT22;54618;52.018;5.576;2024-03-08T08:02:21;3.90;73.10
67820;DHT22;54618;52.018;5.576;2024-03-08T08:04:47;4.00;73.20
67820;DHT22;54618;52.018;5.576;2024-03-08T08:07:12;4.10;73.00
67820;DHT22;54618;52.018;5.576;2024-03-08T08:09:40;4.20;73.40
67820;DHT22;54618;52.018;5.576;2024-03-08T08:12:06;4.40;73.30
67820;DHT22;54618;52.018;5.576;2024-03-08T08:14:32;4.50;73.30
67820;DHT22;54618;52.018;5.576;2024-03-08T08:16:58;4.60;73.20
67820;DHT22;54618;52.018;5.576;2024-03-08T08:19:28;4.70;72.90
67820;DHT22;54618;52.018;5.576;2024-03-08T08:21:54;4.80;73.00
67820;DHT22;54618;52.018;5.576;2024-03-08T08:24:19;4.90;73.40
67820;DHT22;54618;52.018;5.576;2024-03-08T08:26:47;5.00;73.00
67820;DHT22;54618;52.018;5.576;2024-03-08T08:29:13;5.10;73.30
67820;DHT22;54618;52.018;5.576;2024-03-08T08:31:39;5.20;73.10
67820;DHT22;54618;52.018;5.576;2024-03-08T08:34:04;5.30;73.10
67820;DHT22;54618;52.018;5.576;2024-03-08T08:36:31;5.50;73.60
67820;DHT22;54618;52.018;5.576;2024-03-08T08:38:57;5.70;73.50
67820;DHT22;54618;52.018;5.576;2024-03-08T08:41:25;5.90;73.10
67820;DHT22;54618;52.018;5.576;2024-03-08T08:43:50;6.00;72.90
67820;DHT22;54618;52.018;5.576;2024-03-08T08:46:19;6.10;72.90
67820;DHT22;54618;52.018;5.576;2024-03-08T08:48:45;6.10;72.50
67820;DHT22;54618;52.018;5.576;2024-03-08T08:51:12;6.10;73.40
67820;DHT22;54618;52.018;5.576;2024-03-08T08:53:40;6.20;73.30
67820;DHT22;54618;52.018;5.576;2024-03-08T08:56:11;6.40;73.10
67820;DHT22;54618;52.018;5.576;2024-03-08T08:58:39;6.50;72.40
67820;DHT22;54618;52.018;5.576;2024-03-08T09:01:05;6.60;73.30
67820;DHT22;54618;52.018;5.576;2024-03-08T09:03:31;6.70;72.60
67820;DHT22;54618;52.018;5.576;2024-03-08T09:05:56;6.80;72.10
67820;DHT22;54618;52.018;5.576;2024-03-08T09:08:22;6.80;72.70
67820;DHT22;54618;52.018;5.576;2024-03-08T09:10:48;7.00;73.40
67820;DHT22;54618;52.018;5.576;2024-03-08T09:13:14;7.10;72.70
67820;DHT22;54618;52.018;5.576;2024-03-08T09:15:39;7.20;72.80
67820;DHT22;54618;52.018;5.576;2024-03-08T09:18:06;7.30;73.40
67820;DHT22;54618;52.018;5.576;2024-03-08T09:20:32;7.40;73.70
67820;DHT22;54618;52.018;5.576;2024-03-08T09:22:58;7.50;73.10
67820;DHT22;54618;52.018;5.576;2024-03-08T09:25:23;7.50;72.30
67820;DHT22;54618;52.018;5.576;2024-03-08T09:27:49;7.60;72.40
67820;DHT22;54618;52.018;5.576;2024-03-08T09:30:15;7.80;72.60
67820;DHT22;54618;52.018;5.576;2024-03-08T09:32:41;7.90;72.30
67820;DHT22;54618;52.018;5.576;2024-03-08T09:35:08;8.00;72.30
67820;DHT22;54618;52.018;5.576;2024-03-08T09:37:34;8.10;73.20
67820;DHT22;54618;52.018;5.576;2024-03-08T09:40:00;8.20;71.80
67820;DHT22;54618;52.018;5.576;2024-03-08T09:42:30;8.30;71.10
67820;DHT22;54618;52.018;5.576;2024-03-08T09:44:57;8.40;72.20
67820;DHT22;54618;52.018;5.576;2024-03-08T09:47:25;8.60;72.60
67820;DHT22;54618;52.018;5.576;2024-03-08T09:49:54;8.70;72.10
67820;DHT22;54618;52.018;5.576;2024-03-08T09:52:20;8.80;71.60
67820;DHT22;54618;52.018;5.576;2024-03-08T09:54:46;8.90;71.30
67820;DHT22;54618;52.018;5.576;2024-03-08T09:57:12;9.00;71.80
67820;DHT22;54618;52.018;5.576;2024-03-08T09:59:38;9.10;71.00
67820;DHT22;54618;52.018;5.576;2024-03-08T10:02:03;9.10;71.60
67820;DHT22;54618;52.018;5.576;2024-03-08T10:04:30;9.20;71.20
67820;DHT22;54618;52.018;5.576;2024-03-08T10:06:59;9.30;73.00
67820;DHT22;54618;52.018;5.576;2024-03-08T10:09:25;9.40;70.90
67820;DHT22;54618;52.018;5.576;2024-03-08T10:11:56;9.40;72.20
67820;DHT22;54618;52.018;5.576;2024-03-08T10:14:23;9.50;72.60
67820;DHT22;54618;52.018;5.576;2024-03-08T10:16:49;9.60;72.30
67820;DHT22;54618;52.018;5.576;2024-03-08T10:19:15;9.70;71.20
67820;DHT22;54618;52.018;5.576;2024-03-08T10:21:52;9.70;70.90
67820;DHT22;54618;52.018;5.576;2024-03-08T10:24:23;9.80;71.20
67820;DHT22;54618;52.018;5.576;2024-03-08T10:26:52;9.80;72.00
67820;DHT22;54618;52.018;5.576;2024-03-08T10:29:18;9.80;70.90
67820;DHT22;54618;52.018;5.576;2024-03-08T10:31:45;9.80;71.60
67820;DHT22;54618;52.018;5.576;2024-03-08T10:34:10;9.90;71.10
67820;DHT22;54618;52.018;5.576;2024-03-08T10:36:36;10.00;71.00
67820;DHT22;54618;52.018;5.576;2024-03-08T10:39:15;10.10;70.50
67820;DHT22;54618;52.018;5.576;2024-03-08T10:41:45;10.20;71.60
67820;DHT22;54618;52.018;5.576;2024-03-08T10:45:05;10.30;71.30
67820;DHT22;54618;52.018;5.576;2024-03-08T10:47:19;10.30;72.00
67820;DHT22;54618;52.018;5.576;2024-03-08T10:52:19;10.70;72.10
67820;DHT22;54618;52.018;5.576;2024-03-08T10:54:45;10.60;70.90
67820;DHT22;54618;52.018;5.576;2024-03-08T10:57:13;10.70;71.30
67820;DHT22;54618;52.018;5.576;2024-03-08T10:59:40;10.70;70.50
67820;DHT22;54618;52.018;5.576;2024-03-08T11:02:12;10.80;71.40
67820;DHT22;54618;52.018;5.576;2024-03-08T11:04:38;10.90;71.30
67820;DHT22;54618;52.018;5.576;2024-03-08T11:07:04;10.80;71.90
67820;DHT22;54618;52.018;5.576;2024-03-08T11:09:36;10.90;73.00
67820;DHT22;54618;52.018;5.576;2024-03-08T11:12:22;10.90;71.90
67820;DHT22;54618;52.018;5.576;2024-03-08T11:14:53;10.90;69.50
67820;DHT22;54618;52.018;5.576;2024-03-08T11:17:39;10.90;71.60
67820;DHT22;54618;52.018;5.576;2024-03-08T11:20:13;11.00;68.20
67820;DHT22;54618;52.018;5.576;2024-03-08T11:22:47;11.00;71.80
67820;DHT22;54618;52.018;5.576;2024-03-08T11:30:46;11.30;69.80
67820;DHT22;54618;52.018;5.576;2024-03-08T11:33:16;11.40;70.50
67820;DHT22;54618;52.018;5.576;2024-03-08T11:35:43;11.50;68.60
67820;DHT22;54618;52.018;5.576;2024-03-08T11:38:11;11.60;69.70
67820;DHT22;54618;52.018;5.576;2024-03-08T11:40:39;11.60;69.60
67820;DHT22;54618;52.018;5.576;2024-03-08T11:43:05;11.60;69.00
67820;DHT22;54618;52.018;5.576;2024-03-08T11:45:35;11.60;70.70
67820;DHT22;54618;52.018;5.576;2024-03-08T11:48:06;11.70;70.10
67820;DHT22;54618;52.018;5.576;2024-03-08T11:50:32;11.60;69.10
67820;DHT22;54618;52.018;5.576;2024-03-08T11:53:04;11.70;70.00
67820;DHT22;54618;52.018;5.576;2024-03-08T11:55:33;11.60;67.20
67820;DHT22;54618;52.018;5.576;2024-03-08T11:58:05;11.60;68.40
67820;DHT22;54618;52.018;5.576;2024-03-08T12:00:33;11.50;66.10
67820;DHT22;54618;52.018;5.576;2024-03-08T12:05:29;11.60;66.90
67820;DHT22;54618;52.018;5.576;2024-03-08T12:08:00;11.60;68.00
67820;DHT22;54618;52.018;5.576;2024-03-08T12:10:26;11.70;66.70
67820;DHT22;54618;52.018;5.576;2024-03-08T12:12:53;11.80;67.50
67820;DHT22;54618;52.018;5.576;2024-03-08T12:15:21;11.80;66.60
67820;DHT22;54618;52.018;5.576;2024-03-08T12:17:49;11.80;67.70
67820;DHT22;54618;52.018;5.576;2024-03-08T12:22:43;11.90;65.70
67820;DHT22;54618;52.018;5.576;2024-03-08T12:25:11;11.90;65.20
67820;DHT22;54618;52.018;5.576;2024-03-08T12:27:38;11.90;66.50
67820;DHT22;54618;52.018;5.576;2024-03-08T12:30:25;11.90;66.50
67820;DHT22;54618;52.018;5.576;2024-03-08T12:32:56;11.90;55.80
67820;DHT22;54618;52.018;5.576;2024-03-08T12:35:24;11.90;65.60
67820;DHT22;54618;52.018;5.576;2024-03-08T12:37:54;11.90;65.80
67820;DHT22;54618;52.018;5.576;2024-03-08T12:40:28;11.90;65.10
67820;DHT22;54618;52.018;5.576;2024-03-08T12:42:57;11.90;64.30
67820;DHT22;54618;52.018;5.576;2024-03-08T12:45:23;11.80;66.00
67820;DHT22;54618;52.018;5.576;2024-03-08T12:47:55;11.80;64.20
67820;DHT22;54618;52.018;5.576;2024-03-08T12:50:22;11.80;60.60
67820;DHT22;54618;52.018;5.576;2024-03-08T12:52:48;11.80;64.80
67820;DHT22;54618;52.018;5.576;2024-03-08T12:55:15;11.80;66.60
67820;DHT22;54618;52.018;5.576;2024-03-08T12:57:44;11.70;66.00
67820;DHT22;54618;52.018;5.576;2024-03-08T13:00:10;11.70;66.10
67820;DHT22;54618;52.018;5.576;2024-03-08T13:02:41;11.70;66.30
67820;DHT22;54618;52.018;5.576;2024-03-08T13:05:07;11.80;63.50
67820;DHT22;54618;52.018;5.576;2024-03-08T13:07:35;11.80;66.00
67820;DHT22;54618;52.018;5.576;2024-03-08T13:10:03;11.80;65.40
67820;DHT22;54618;52.018;5.576;2024-03-08T13:12:30;11.80;64.10
67820;DHT22;54618;52.018;5.576;2024-03-08T13:14:55;11.80;65.30
67820;DHT22;54618;52.018;5.576;2024-03-08T13:17:22;11.70;63.20
67820;DHT22;54618;52.018;5.576;2024-03-08T13:19:48;11.70;64.10
67820;DHT22;54618;52.018;5.576;2024-03-08T13:22:13;11.70;65.10
67820;DHT22;54618;52.018;5.576;2024-03-08T13:24:42;11.60;64.30
67820;DHT22;54618;52.018;5.576;2024-03-08T13:27:10;11.60;64.30
67820;DHT22;54618;52.018;5.576;2024-03-08T13:29:46;11.70;64.30
67820;DHT22;54618;52.018;5.576;2024-03-08T13:32:12;11.80;64.90
67820;DHT22;54618;52.018;5.576;2024-03-08T13:34:44;11.80;64.80
67820;DHT22;54618;52.018;5.576;2024-03-08T13:37:10;11.90;64.30
67820;DHT22;54618;52.018;5.576;2024-03-08T13:39:37;11.90;65.50
67820;DHT22;54618;52.018;5.576;2024-03-08T13:42:15;11.90;65.90
67820;DHT22;54618;52.018;5.576;2024-03-08T13:44:48;11.90;58.70
67820;DHT22;54618;52.018;5.576;2024-03-08T13:47:16;11.80;58.70
67820;DHT22;54618;52.018;5.576;2024-03-08T13:49:45;11.70;63.50
67820;DHT22;54618;52.018;5.576;2024-03-08T13:52:11;11.80;64.80
67820;DHT22;54618;52.018;5.576;2024-03-08T13:54:40;11.80;64.30
67820;DHT22;54618;52.018;5.576;2024-03-08T13:57:06;11.70;63.00
67820;DHT22;54618;52.018;5.576;2024-03-08T13:59:33;11.70;63.90
67820;DHT22;54618;52.018;5.576;2024-03-08T14:02:03;11.70;64.00
67820;DHT22;54618;52.018;5.576;2024-03-08T14:04:29;11.70;64.70
67820;DHT22;54618;52.018;5.576;2024-03-08T14:06:55;11.70;64.30
67820;DHT22;54618;52.018;5.576;2024-03-08T14:09:25;11.80;63.10
67820;DHT22;54618;52.018;5.576;2024-03-08T14:11:52;11.80;63.80
67820;DHT22;54618;52.018;5.576;2024-03-08T14:14:23;11.80;64.20
67820;DHT22;54618;52.018;5.576;2024-03-08T14:16:49;11.80;64.60
67820;DHT22;54618;52.018;5.576;2024-03-08T14:19:19;11.80;63.30
67820;DHT22;54618;52.018;5.576;2024-03-08T14:21:44;11.80;64.20
67820;DHT22;54618;52.018;5.576;2024-03-08T14:24:10;11.80;64.60
67820;DHT22;54618;52.018;5.576;2024-03-08T14:26:35;11.70;63.80
67820;DHT22;54618;52.018;5.576;2024-03-08T14:29:04;11.70;64.50
67820;DHT22;54618;52.018;5.576;2024-03-08T14:31:31;11.80;64.70
67820;DHT22;54618;52.018;5.576;2024-03-08T14:33:56;11.70;64.70
67820;DHT22;54618;52.018;5.576;2024-03-08T14:36:24;11.70;63.70
67820;DHT22;54618;52.018;5.576;2024-03-08T14:38:51;11.70;64.40
67820;DHT22;54618;52.018;5.576;2024-03-08T14:41:18;11.70;64.60
67820;DHT22;54618;52.018;5.576;2024-03-08T14:43:44;11.60;63.70
67820;DHT22;54618;52.018;5.576;2024-03-08T14:46:13;11.50;64.40
67820;DHT22;54618;52.018;5.576;2024-03-08T14:48:52;11.50;63.80
67820;DHT22;54618;52.018;5.576;2024-03-08T14:51:21;11.40;63.10
67820;DHT22;54618;52.018;5.576;2024-03-08T14:53:48;11.40;61.80
67820;DHT22;54618;52.018;5.576;2024-03-08T14:56:15;11.40;63.40
67820;DHT22;54618;52.018;5.576;2024-03-08T14:58:47;11.30;62.90
67820;DHT22;54618;52.018;5.576;2024-03-08T15:01:17;11.20;60.50
67820;DHT22;54618;52.018;5.576;2024-03-08T15:03:47;11.30;62.70
67820;DHT22;54618;52.018;5.576;2024-03-08T15:06:14;11.30;63.50
67820;DHT22;54618;52.018;5.576;2024-03-08T15:08:41;11.20;62.70
67820;DHT22;54618;52.018;5.576;2024-03-08T15:11:06;11.20;63.60
67820;DHT22;54618;52.018;5.576;2024-03-08T15:13:35;11.10;62.70
67820;DHT22;54618;52.018;5.576;2024-03-08T15:16:11;11.00;62.10
67820;DHT22;54618;52.018;5.576;2024-03-08T15:18:42;11.00;63.20
67820;DHT22;54618;52.018;5.576;2024-03-08T15:21:12;11.00;62.10
67820;DHT22;54618;52.018;5.576;2024-03-08T15:23:41;10.90;63.00
67820;DHT22;54618;52.018;5.576;2024-03-08T15:26:10;10.90;62.80
67820;DHT22;54618;52.018;5.576;2024-03-08T15:28:36;10.80;62.20
67820;DHT22;54618;52.018;5.576;2024-03-08T15:31:06;10.80;62.50
67820;DHT22;54618;52.018;5.576;2024-03-08T15:33:33;10.80;62.50
67820;DHT22;54618;52.018;5.576;2024-03-08T15:35:59;10.80;63.20
67820;DHT22;54618;52.018;5.576;2024-03-08T15:38:29;10.80;63.20
67820;DHT22;54618;52.018;5.576;2024-03-08T15:40:55;10.80;63.20
67820;DHT22;54618;52.018;5.576;2024-03-08T15:43:22;10.80;62.80
67820;DHT22;54618;52.018;5.576;2024-03-08T15:45:48;10.80;62.80
67820;DHT22;54618;52.018;5.576;2024-03-08T15:48:14;10.70;62.50
67820;DHT22;54618;52.018;5.576;2024-03-08T15:50:39;10.70;63.10
67820;DHT22;54618;52.018;5.576;2024-03-08T15:53:05;10.60;62.90
67820;DHT22;54618;52.018;5.576;2024-03-08T15:55:31;10.60;62.90